sensor_id;sensor_type;location;lat;lon;timestamp;temperature;humidity
666;DHT22;315;48.738;9.126;2023-03-23T00:02:24;14.10;93.40
666;DHT22;315;48.738;9.126;2023-03-23T00:04:50;14.10;93.60
666;DHT22;315;48.738;9.126;2023-03-23T00:07:16;14.10;94.00
666;DHT22;315;48.738;9.126;2023-03-23T00:09:49;14.10;94.20
666;DHT22;315;48.738;9.126;2023-03-23T00:12:24;14.10;94.60
666;DHT22;315;48.738;9.126;2023-03-23T00:15:07;14.10;95.10
666;DHT22;315;48.738;9.126;2023-03-23T00:17:38;14.00;95.20
666;DHT22;315;48.738;9.126;2023-03-23T00:20:06;14.00;95.80
666;DHT22;315;48.738;9.126;2023-03-23T00:22:32;14.00;96.30
666;DHT22;315;48.738;9.126;2023-03-23T00:25:03;14.00;95.90
666;DHT22;315;48.738;9.126;2023-03-23T00:27:29;14.00;96.30
666;DHT22;315;48.738;9.126;2023-03-23T00:29:54;14.00;96.50
666;DHT22;315;48.738;9.126;2023-03-23T00:32:21;13.90;96.70
666;DHT22;315;48.738;9.126;2023-03-23T00:34:52;13.80;97.30
666;DHT22;315;48.738;9.126;2023-03-23T00:37:18;13.70;97.60
666;DHT22;315;48.738;9.126;2023-03-23T00:39:44;13.60;98.00
666;DHT22;315;48.738;9.126;2023-03-23T00:42:13;13.60;98.50
666;DHT22;315;48.738;9.126;2023-03-23T00:44:39;13.50;98.40
666;DHT22;315;48.738;9.126;2023-03-23T00:47:05;13.40;98.20
666;DHT22;315;48.738;9.126;2023-03-23T00:49:31;13.30;99.00
666;DHT22;315;48.738;9.126;2023-03-23T00:52:00;13.30;99.10
666;DHT22;315;48.738;9.126;2023-03-23T00:54:26;13.20;99.60
666;DHT22;315;48.738;9.126;2023-03-23T00:56:52;13.20;99.80
666;DHT22;315;48.738;9.126;2023-03-23T00:59:18;13.20;99.90
666;DHT22;315;48.738;9.126;2023-03-23T01:01:44;13.20;99.90
666;DHT22;315;48.738;9.126;2023-03-23T01:04:10;13.20;99.90
666;DHT22;315;48.738;9.126;2023-03-23T01:06:39;13.20;99.90
666;DHT22;315;48.738;9.126;2023-03-23T01:09:10;13.20;99.90
666;DHT22;315;48.738;9.126;2023-03-23T01:11:36;13.10;99.90
666;DHT22;315;48.738;9.126;2023-03-23T01:14:03;13.20;99.90
666;DHT22;315;48.738;9.126;2023-03-23T01:16:29;13.20;99.90
666;DHT22;315;48.738;9.126;2023-03-23T01:18:54;13.10;99.90
666;DHT22;315;48.738;9.126;2023-03-23T01:21:21;13.10;99.90
666;DHT22;315;48.738;9.126;2023-03-23T01:23:47;13.10;99.90
666;DHT22;315;48.738;9.126;2023-03-23T01:26:16;13.20;99.90
666;DHT22;315;48.738;9.126;2023-03-23T01:28:42;13.20;99.90
666;DHT22;315;48.738;9.126;2023-03-23T01:31:11;13.10;99.90
666;DHT22;315;48.738;9.126;2023-03-23T01:33:38;13.10;99.90
666;DHT22;315;48.738;9.126;2023-03-23T01:36:07;13.10;99.90
666;DHT22;315;48.738;9.126;2023-03-23T01:38:34;13.10;99.90
666;DHT22;315;48.738;9.126;2023-03-23T01:41:01;13.00;99.90
666;DHT22;315;48.738;9.126;2023-03-23T01:43:26;13.00;99.90
666;DHT22;315;48.738;9.126;2023-03-23T01:45:53;13.00;99.90
666;DHT22;315;48.738;9.126;2023-03-23T01:48:22;13.00;99.90
666;DHT22;315;48.738;9.126;2023-03-23T01:50:55;13.00;99.90
666;DHT22;315;48.738;9.126;2023-03-23T01:53:23;13.00;99.90
666;DHT22;315;48.738;9.126;2023-03-23T01:55:52;13.00;99.90
666;DHT22;315;48.738;9.126;2023-03-23T01:58:25;13.00;99.90
666;DHT22;315;48.738;9.126;2023-03-23T02:00:54;13.10;99.90
666;DHT22;315;48.738;9.126;2023-03-23T02:03:21;13.10;99.90
666;DHT22;315;48.738;9.126;2023-03-23T02:05:49;13.10;99.90
666;DHT22;315;48.738;9.126;2023-03-23T02:08:14;13.10;99.90
666;DHT22;315;48.738;9.126;2023-03-23T02:10:43;13.10;99.90
666;DHT22;315;48.738;9.126;2023-03-23T02:13:09;13.10;99.90
666;DHT22;315;48.738;9.126;2023-03-23T02:15:44;13.10;99.90
666;DHT22;315;48.738;9.126;2023-03-23T02:21:20;13.10;99.90
666;DHT22;315;48.738;9.126;2023-03-23T02:29:59;13.10;99.90
666;DHT22;315;48.738;9.126;2023-03-23T02:35:44;13.20;99.90
666;DHT22;315;48.738;9.126;2023-03-23T02:38:17;13.20;99.90
666;DHT22;315;48.738;9.126;2023-03-23T02:40:48;13.20;99.90
666;DHT22;315;48.738;9.126;2023-03-23T02:43:17;13.20;99.90
666;DHT22;315;48.738;9.126;2023-03-23T02:45:45;13.20;99.90
666;DHT22;315;48.738;9.126;2023-03-23T02:48:13;13.10;99.90
666;DHT22;315;48.738;9.126;2023-03-23T02:50:43;13.10;99.90
666;DHT22;315;48.738;9.126;2023-03-23T02:53:11;13.10;99.90
666;DHT22;315;48.738;9.126;2023-03-23T02:55:41;13.10;99.90
666;DHT22;315;48.738;9.126;2023-03-23T02:58:08;13.10;99.90
666;DHT22;315;48.738;9.126;2023-03-23T03:00:35;13.10;99.90
666;DHT22;315;48.738;9.126;2023-03-23T03:03:01;13.10;99.90
666;DHT22;315;48.738;9.126;2023-03-23T03:08:52;13.00;99.90
666;DHT22;315;48.738;9.126;2023-03-23T03:11:21;13.00;99.90
666;DHT22;315;48.738;9.126;2023-03-23T03:16:33;13.00;99.90
666;DHT22;315;48.738;9.126;2023-03-23T03:19:10;13.00;99.90
666;DHT22;315;48.738;9.126;2023-03-23T03:21:40;13.00;99.90
666;DHT22;315;48.738;9.126;2023-03-23T03:24:08;13.10;99.90
666;DHT22;315;48.738;9.126;2023-03-23T03:26:40;13.10;99.90
666;DHT22;315;48.738;9.126;2023-03-23T03:29:10;13.20;99.90
666;DHT22;315;48.738;9.126;2023-03-23T03:31:39;13.20;99.90
666;DHT22;315;48.738;9.126;2023-03-23T03:34:06;13.20;99.90
666;DHT22;315;48.738;9.126;2023-03-23T03:36:33;13.30;99.90
666;DHT22;315;48.738;9.126;2023-03-23T03:39:05;13.30;99.90
666;DHT22;315;48.738;9.126;2023-03-23T03:41:34;13.30;99.90
666;DHT22;315;48.738;9.126;2023-03-23T03:44:01;13.30;99.90
666;DHT22;315;48.738;9.126;2023-03-23T03:46:26;13.30;99.90
666;DHT22;315;48.738;9.126;2023-03-23T03:48:55;13.40;99.90
666;DHT22;315;48.738;9.126;2023-03-23T03:51:22;13.40;99.90
666;DHT22;315;48.738;9.126;2023-03-23T03:53:47;13.30;99.90
666;DHT22;315;48.738;9.126;2023-03-23T03:56:13;13.30;99.90
666;DHT22;315;48.738;9.126;2023-03-23T03:58:39;13.30;99.90
666;DHT22;315;48.738;9.126;2023-03-23T04:01:08;13.30;99.90
666;DHT22;315;48.738;9.126;2023-03-23T04:03:36;13.20;99.90
666;DHT22;315;48.738;9.126;2023-03-23T04:06:02;13.30;99.90
666;DHT22;315;48.738;9.126;2023-03-23T04:08:28;13.20;99.90
666;DHT22;315;48.738;9.126;2023-03-23T04:10:54;13.20;99.90
666;DHT22;315;48.738;9.126;2023-03-23T04:13:21;13.20;99.90
666;DHT22;315;48.738;9.126;2023-03-23T04:15:47;13.20;99.90
666;DHT22;315;48.738;9.126;2023-03-23T04:18:13;13.20;99.90
666;DHT22;315;48.738;9.126;2023-03-23T04:20:41;13.30;99.90
666;DHT22;315;48.738;9.126;2023-03-23T04:23:06;13.30;99.90
666;DHT22;315;48.738;9.126;2023-03-23T04:25:32;13.40;99.90
666;DHT22;315;48.738;9.126;2023-03-23T04:27:58;13.40;99.90
666;DHT22;315;48.738;9.126;2023-03-23T04:30:26;13.40;99.90
666;DHT22;315;48.738;9.126;2023-03-23T04:32:52;13.40;99.90
666;DHT22;315;48.738;9.126;2023-03-23T04:35:23;13.50;99.90
666;DHT22;315;48.738;9.126;2023-03-23T04:37:51;13.40;99.90
666;DHT22;315;48.738;9.126;2023-03-23T04:40:17;13.40;99.90
666;DHT22;315;48.738;9.126;2023-03-23T04:42:44;13.40;99.90
666;DHT22;315;48.738;9.126;2023-03-23T04:45:18;13.40;99.90
666;DHT22;315;48.738;9.126;2023-03-23T04:47:51;13.40;99.90
666;DHT22;315;48.738;9.126;2023-03-23T04:50:25;13.40;99.90
666;DHT22;315;48.738;9.126;2023-03-23T04:52:51;13.40;99.90
666;DHT22;315;48.738;9.126;2023-03-23T04:55:19;13.40;99.90
666;DHT22;315;48.738;9.126;2023-03-23T04:57:46;13.40;99.90
666;DHT22;315;48.738;9.126;2023-03-23T05:00:12;13.50;99.90
666;DHT22;315;48.738;9.126;2023-03-23T05:02:40;13.50;99.90
666;DHT22;315;48.738;9.126;2023-03-23T05:05:12;13.60;99.90
666;DHT22;315;48.738;9.126;2023-03-23T05:07:39;13.60;99.90
666;DHT22;315;48.738;9.126;2023-03-23T05:10:06;13.60;99.90
666;DHT22;315;48.738;9.126;2023-03-23T05:12:33;13.60;99.90
666;DHT22;315;48.738;9.126;2023-03-23T05:14:58;13.60;99.90
666;DHT22;315;48.738;9.126;2023-03-23T05:17:24;13.60;99.90
666;DHT22;315;48.738;9.126;2023-03-23T05:19:51;13.60;99.90
666;DHT22;315;48.738;9.126;2023-03-23T05:22:18;13.70;99.90
666;DHT22;315;48.738;9.126;2023-03-23T05:24:46;13.60;99.90
666;DHT22;315;48.738;9.126;2023-03-23T05:27:12;13.60;99.90
666;DHT22;315;48.738;9.126;2023-03-23T05:29:40;13.70;99.90
666;DHT22;315;48.738;9.126;2023-03-23T05:32:07;13.70;99.90
666;DHT22;315;48.738;9.126;2023-03-23T05:34:33;13.70;99.90
666;DHT22;315;48.738;9.126;2023-03-23T05:37:00;13.70;99.90
666;DHT22;315;48.738;9.126;2023-03-23T05:39:26;13.70;99.90
666;DHT22;315;48.738;9.126;2023-03-23T05:41:52;13.70;99.90
666;DHT22;315;48.738;9.126;2023-03-23T05:44:18;13.80;99.90
666;DHT22;315;48.738;9.126;2023-03-23T05:46:44;13.80;99.90
666;DHT22;315;48.738;9.126;2023-03-23T05:49:09;13.90;99.90
666;DHT22;315;48.738;9.126;2023-03-23T05:51:35;13.90;99.90
666;DHT22;315;48.738;9.126;2023-03-23T05:54:01;13.80;99.90
666;DHT22;315;48.738;9.126;2023-03-23T05:56:27;13.80;99.90
666;DHT22;315;48.738;9.126;2023-03-23T05:58:55;13.90;99.90
666;DHT22;315;48.738;9.126;2023-03-23T06:01:21;13.90;99.90
666;DHT22;315;48.738;9.126;2023-03-23T06:03:46;13.90;99.90
666;DHT22;315;48.738;9.126;2023-03-23T06:06:16;14.00;99.90
666;DHT22;315;48.738;9.126;2023-03-23T06:08:41;14.00;99.90
666;DHT22;315;48.738;9.126;2023-03-23T06:11:08;14.00;99.90
666;DHT22;315;48.738;9.126;2023-03-23T06:13:33;14.10;99.90
666;DHT22;315;48.738;9.126;2023-03-23T06:15:59;14.10;99.90
666;DHT22;315;48.738;9.126;2023-03-23T06:18:24;14.10;99.90
666;DHT22;315;48.738;9.126;2023-03-23T06:20:51;14.20;99.90
666;DHT22;315;48.738;9.126;2023-03-23T06:23:17;14.20;99.90
666;DHT22;315;48.738;9.126;2023-03-23T06:25:43;14.20;99.90
666;DHT22;315;48.738;9.126;2023-03-23T06:28:09;14.20;99.90
666;DHT22;315;48.738;9.126;2023-03-23T06:30:36;14.30;99.90
666;DHT22;315;48.738;9.126;2023-03-23T06:33:02;14.20;99.90
666;DHT22;315;48.738;9.126;2023-03-23T06:35:33;14.20;99.90
666;DHT22;315;48.738;9.126;2023-03-23T06:37:59;14.20;99.90
666;DHT22;315;48.738;9.126;2023-03-23T06:40:27;14.30;99.90
666;DHT22;315;48.738;9.126;2023-03-23T06:42:53;14.30;99.90
666;DHT22;315;48.738;9.126;2023-03-23T06:45:19;14.30;99.90
666;DHT22;315;48.738;9.126;2023-03-23T06:47:45;14.30;99.90
666;DHT22;315;48.738;9.126;2023-03-23T06:50:14;14.30;99.90
666;DHT22;315;48.738;9.126;2023-03-23T06:52:40;14.30;99.90
666;DHT22;315;48.738;9.126;2023-03-23T06:55:06;14.40;99.90
666;DHT22;315;48.738;9.126;2023-03-23T06:57:32;14.50;99.90
666;DHT22;315;48.738;9.126;2023-03-23T06:59:57;14.60;99.90
666;DHT22;315;48.738;9.126;2023-03-23T07:02:23;14.70;99.90
666;DHT22;315;48.738;9.126;2023-03-23T07:04:49;14.80;99.90
666;DHT22;315;48.738;9.126;2023-03-23T07:07:14;14.90;99.90
666;DHT22;315;48.738;9.126;2023-03-23T07:09:44;14.90;99.90
666;DHT22;315;48.738;9.126;2023-03-23T07:12:09;14.90;99.90
666;DHT22;315;48.738;9.126;2023-03-23T07:14:35;14.90;99.90
666;DHT22;315;48.738;9.126;2023-03-23T07:17:02;14.90;99.90
666;DHT22;315;48.738;9.126;2023-03-23T07:19:28;14.90;99.90
666;DHT22;315;48.738;9.126;2023-03-23T07:21:53;14.90;99.90
666;DHT22;315;48.738;9.126;2023-03-23T07:24:19;14.90;99.90
666;DHT22;315;48.738;9.126;2023-03-23T07:26:45;14.90;99.90
666;DHT22;315;48.738;9.126;2023-03-23T07:29:11;14.80;99.90
666;DHT22;315;48.738;9.126;2023-03-23T07:31:36;14.80;99.90
666;DHT22;315;48.738;9.126;2023-03-23T07:34:03;14.70;99.90
666;DHT22;315;48.738;9.126;2023-03-23T07:36:29;14.70;99.90
666;DHT22;315;48.738;9.126;2023-03-23T07:38:55;14.70;99.90
666;DHT22;315;48.738;9.126;2023-03-23T07:41:21;14.70;99.90
666;DHT22;315;48.738;9.126;2023-03-23T07:43:47;14.70;99.90
666;DHT22;315;48.738;9.126;2023-03-23T07:46:13;14.80;99.90
666;DHT22;315;48.738;9.126;2023-03-23T07:48:39;14.80;99.90
666;DHT22;315;48.738;9.126;2023-03-23T07:51:05;14.90;99.90
666;DHT22;315;48.738;9.126;2023-03-23T07:53:31;15.00;99.90
666;DHT22;315;48.738;9.126;2023-03-23T07:55:57;15.20;99.90
666;DHT22;315;48.738;9.126;2023-03-23T07:58:23;15.40;99.90
666;DHT22;315;48.738;9.126;2023-03-23T08:00:48;15.50;99.90
666;DHT22;315;48.738;9.126;2023-03-23T08:03:14;15.60;99.90
666;DHT22;315;48.738;9.126;2023-03-23T08:05:41;15.80;99.90
666;DHT22;315;48.738;9.126;2023-03-23T08:08:08;15.90;99.90
666;DHT22;315;48.738;9.126;2023-03-23T08:10:35;16.00;99.90
666;DHT22;315;48.738;9.126;2023-03-23T08:13:01;15.90;99.90
666;DHT22;315;48.738;9.126;2023-03-23T08:15:26;15.90;99.90
666;DHT22;315;48.738;9.126;2023-03-23T08:17:52;15.90;99.90
666;DHT22;315;48.738;9.126;2023-03-23T08:20:18;15.70;99.90
666;DHT22;315;48.738;9.126;2023-03-23T08:22:49;15.60;99.90
666;DHT22;315;48.738;9.126;2023-03-23T08:25:16;15.80;99.90
666;DHT22;315;48.738;9.126;2023-03-23T08:27:42;15.90;99.90
666;DHT22;315;48.738;9.126;2023-03-23T08:30:11;16.10;99.90
666;DHT22;315;48.738;9.126;2023-03-23T08:32:38;16.20;99.90
666;DHT22;315;48.738;9.126;2023-03-23T08:35:05;16.20;99.90
666;DHT22;315;48.738;9.126;2023-03-23T08:37:30;16.20;99.90
666;DHT22;315;48.738;9.126;2023-03-23T08:39:56;16.00;99.90
666;DHT22;315;48.738;9.126;2023-03-23T08:42:25;16.10;99.90
666;DHT22;315;48.738;9.126;2023-03-23T08:44:51;16.10;99.90
666;DHT22;315;48.738;9.126;2023-03-23T08:47:17;16.00;99.90
666;DHT22;315;48.738;9.126;2023-03-23T08:49:43;16.00;99.90
666;DHT22;315;48.738;9.126;2023-03-23T08:52:10;15.90;99.90
666;DHT22;315;48.738;9.126;2023-03-23T08:54:36;16.00;99.90
666;DHT22;315;48.738;9.126;2023-03-23T08:57:03;16.10;99.90
666;DHT22;315;48.738;9.126;2023-03-23T08:59:29;16.00;99.90
666;DHT22;315;48.738;9.126;2023-03-23T09:01:54;16.10;99.90
666;DHT22;315;48.738;9.126;2023-03-23T09:04:20;16.20;99.90
666;DHT22;315;48.738;9.126;2023-03-23T09:06:46;16.30;99.90
666;DHT22;315;48.738;9.126;2023-03-23T09:09:12;16.40;99.90
666;DHT22;315;48.738;9.126;2023-03-23T09:11:38;16.20;99.90
666;DHT22;315;48.738;9.126;2023-03-23T09:14:05;16.20;99.90
666;DHT22;315;48.738;9.126;2023-03-23T09:16:32;16.50;99.90
666;DHT22;315;48.738;9.126;2023-03-23T09:18:58;16.60;99.90
666;DHT22;315;48.738;9.126;2023-03-23T09:21:25;16.80;99.90
666;DHT22;315;48.738;9.126;2023-03-23T09:23:51;16.90;99.90
666;DHT22;315;48.738;9.126;2023-03-23T09:26:17;17.10;99.90
666;DHT22;315;48.738;9.126;2023-03-23T09:28:43;17.00;99.90
666;DHT22;315;48.738;9.126;2023-03-23T09:31:10;17.10;99.90
666;DHT22;315;48.738;9.126;2023-03-23T09:33:36;17.20;99.90
666;DHT22;315;48.738;9.126;2023-03-23T09:36:03;17.10;99.90
666;DHT22;315;48.738;9.126;2023-03-23T09:38:31;16.90;99.90
666;DHT22;315;48.738;9.126;2023-03-23T09:41:17;16.70;99.90
666;DHT22;315;48.738;9.126;2023-03-23T09:46:42;16.40;99.90
666;DHT22;315;48.738;9.126;2023-03-23T09:49:27;16.20;99.90
666;DHT22;315;48.738;9.126;2023-03-23T09:51:59;16.10;99.90
666;DHT22;315;48.738;9.126;2023-03-23T09:54:35;16.10;99.90
666;DHT22;315;48.738;9.126;2023-03-23T09:57:03;16.10;99.90
666;DHT22;315;48.738;9.126;2023-03-23T10:04:49;16.20;99.90
666;DHT22;315;48.738;9.126;2023-03-23T10:07:23;16.50;99.90
666;DHT22;315;48.738;9.126;2023-03-23T10:09:56;16.70;99.90
666;DHT22;315;48.738;9.126;2023-03-23T10:12:49;17.30;99.90
666;DHT22;315;48.738;9.126;2023-03-23T10:15:26;18.00;99.90
666;DHT22;315;48.738;9.126;2023-03-23T10:18:07;18.50;99.90
666;DHT22;315;48.738;9.126;2023-03-23T10:20:50;19.00;99.80
666;DHT22;315;48.738;9.126;2023-03-23T10:25:58;19.50;97.20
666;DHT22;315;48.738;9.126;2023-03-23T10:28:37;18.70;98.50
666;DHT22;315;48.738;9.126;2023-03-23T10:31:05;18.00;99.90
666;DHT22;315;48.738;9.126;2023-03-23T10:33:41;17.80;99.90
666;DHT22;315;48.738;9.126;2023-03-23T10:36:34;17.80;99.90
666;DHT22;315;48.738;9.126;2023-03-23T10:41:34;17.40;99.90
666;DHT22;315;48.738;9.126;2023-03-23T10:44:00;17.70;99.90
666;DHT22;315;48.738;9.126;2023-03-23T10:49:10;18.00;99.90
666;DHT22;315;48.738;9.126;2023-03-23T10:51:41;18.40;99.90
666;DHT22;315;48.738;9.126;2023-03-23T10:54:08;18.80;99.90
666;DHT22;315;48.738;9.126;2023-03-23T10:56:41;19.50;98.50
666;DHT22;315;48.738;9.126;2023-03-23T10:59:34;19.90;96.30
666;DHT22;315;48.738;9.126;2023-03-23T11:02:02;19.90;96.20
666;DHT22;315;48.738;9.126;2023-03-23T11:04:31;20.20;95.40
666;DHT22;315;48.738;9.126;2023-03-23T11:07:00;20.20;95.40
666;DHT22;315;48.738;9.126;2023-03-23T11:09:38;20.00;96.20
666;DHT22;315;48.738;9.126;2023-03-23T11:12:04;19.60;96.50
666;DHT22;315;48.738;9.126;2023-03-23T11:14:31;19.10;98.00
666;DHT22;315;48.738;9.126;2023-03-23T11:17:00;18.70;99.90
666;DHT22;315;48.738;9.126;2023-03-23T11:19:32;18.70;99.90
666;DHT22;315;48.738;9.126;2023-03-23T11:22:12;18.50;99.80
666;DHT22;315;48.738;9.126;2023-03-23T11:24:45;18.20;99.90
666;DHT22;315;48.738;9.126;2023-03-23T11:27:13;18.00;99.90
666;DHT22;315;48.738;9.126;2023-03-23T11:29:49;17.60;99.90
666;DHT22;315;48.738;9.126;2023-03-23T11:32:16;17.40;99.90
666;DHT22;315;48.738;9.126;2023-03-23T11:34:48;17.50;99.90
666;DHT22;315;48.738;9.126;2023-03-23T11:37:41;17.30;99.90
666;DHT22;315;48.738;9.126;2023-03-23T11:42:59;18.20;99.90
666;DHT22;315;48.738;9.126;2023-03-23T11:45:30;18.50;99.90
666;DHT22;315;48.738;9.126;2023-03-23T11:56:14;18.90;99.90
666;DHT22;315;48.738;9.126;2023-03-23T11:58:41;19.00;98.30
666;DHT22;315;48.738;9.126;2023-03-23T12:01:18;19.20;98.50
666;DHT22;315;48.738;9.126;2023-03-23T12:06:59;18.70;98.20
666;DHT22;315;48.738;9.126;2023-03-23T12:18:06;18.60;98.30
666;DHT22;315;48.738;9.126;2023-03-23T12:20:55;18.50;97.90
666;DHT22;315;48.738;9.126;2023-03-23T12:23:50;18.40;98.10
666;DHT22;315;48.738;9.126;2023-03-23T12:26:20;18.50;98.40
666;DHT22;315;48.738;9.126;2023-03-23T12:31:46;18.70;98.70
666;DHT22;315;48.738;9.126;2023-03-23T12:42:35;18.60;98.20
666;DHT22;315;48.738;9.126;2023-03-23T12:48:05;19.40;95.80
666;DHT22;315;48.738;9.126;2023-03-23T12:53:18;20.60;93.10
666;DHT22;315;48.738;9.126;2023-03-23T12:55:49;20.50;92.60
666;DHT22;315;48.738;9.126;2023-03-23T12:58:19;20.60;92.40
666;DHT22;315;48.738;9.126;2023-03-23T13:01:02;20.50;91.50
666;DHT22;315;48.738;9.126;2023-03-23T13:03:40;20.10;92.60
666;DHT22;315;48.738;9.126;2023-03-23T13:06:29;19.90;93.00
666;DHT22;315;48.738;9.126;2023-03-23T13:11:36;19.50;94.60
666;DHT22;315;48.738;9.126;2023-03-23T13:17:11;19.10;95.60
666;DHT22;315;48.738;9.126;2023-03-23T13:20:13;19.20;96.10
666;DHT22;315;48.738;9.126;2023-03-23T13:22:48;19.20;95.80
666;DHT22;315;48.738;9.126;2023-03-23T13:25:19;19.40;95.20
666;DHT22;315;48.738;9.126;2023-03-23T13:27:57;19.60;93.80
666;DHT22;315;48.738;9.126;2023-03-23T13:30:24;19.70;93.90
666;DHT22;315;48.738;9.126;2023-03-23T13:32:50;19.70;94.00
666;DHT22;315;48.738;9.126;2023-03-23T13:35:17;19.70;93.50
666;DHT22;315;48.738;9.126;2023-03-23T13:37:48;19.40;93.20
666;DHT22;315;48.738;9.126;2023-03-23T13:40:26;19.10;93.50
666;DHT22;315;48.738;9.126;2023-03-23T13:42:55;18.90;94.70
666;DHT22;315;48.738;9.126;2023-03-23T13:51:00;19.20;94.20
666;DHT22;315;48.738;9.126;2023-03-23T13:53:35;19.30;94.00
666;DHT22;315;48.738;9.126;2023-03-23T13:56:17;19.50;93.10
666;DHT22;315;48.738;9.126;2023-03-23T13:58:51;19.30;93.70
666;DHT22;315;48.738;9.126;2023-03-23T14:01:33;19.10;94.40
666;DHT22;315;48.738;9.126;2023-03-23T14:04:04;18.90;94.90
666;DHT22;315;48.738;9.126;2023-03-23T14:06:35;18.60;95.60
666;DHT22;315;48.738;9.126;2023-03-23T14:09:10;18.60;95.50
666;DHT22;315;48.738;9.126;2023-03-23T14:11:47;18.60;96.20
666;DHT22;315;48.738;9.126;2023-03-23T14:14:20;18.60;95.10
666;DHT22;315;48.738;9.126;2023-03-23T14:16:49;18.50;94.60
666;DHT22;315;48.738;9.126;2023-03-23T14:19:24;18.30;94.80
666;DHT22;315;48.738;9.126;2023-03-23T14:21:56;18.30;94.70
666;DHT22;315;48.738;9.126;2023-03-23T14:24:28;18.30;94.80
666;DHT22;315;48.738;9.126;2023-03-23T14:27:07;18.20;94.40
666;DHT22;315;48.738;9.126;2023-03-23T14:29:33;18.20;94.40
666;DHT22;315;48.738;9.126;2023-03-23T14:31:59;18.20;94.70
666;DHT22;315;48.738;9.126;2023-03-23T14:34:28;18.20;94.40
666;DHT22;315;48.738;9.126;2023-03-23T14:36:55;18.20;94.80
666;DHT22;315;48.738;9.126;2023-03-23T14:39:31;18.20;94.70
666;DHT22;315;48.738;9.126;2023-03-23T14:42:06;18.30;94.80
666;DHT22;315;48.738;9.126;2023-03-23T14:44:37;18.40;94.70
666;DHT22;315;48.738;9.126;2023-03-23T14:47:06;18.30;94.60
666;DHT22;315;48.738;9.126;2023-03-23T14:49:38;18.20;93.90
666;DHT22;315;48.738;9.126;2023-03-23T14:52:13;18.10;94.50
666;DHT22;315;48.738;9.126;2023-03-23T14:54:40;18.00;94.00
666;DHT22;315;48.738;9.126;2023-03-23T14:57:13;18.00;94.30
666;DHT22;315;48.738;9.126;2023-03-23T14:59:46;18.10;94.30
666;DHT22;315;48.738;9.126;2023-03-23T15:02:35;18.00;94.10
666;DHT22;315;48.738;9.126;2023-03-23T15:05:05;18.00;94.30
666;DHT22;315;48.738;9.126;2023-03-23T15:07:35;18.10;94.40
666;DHT22;315;48.738;9.126;2023-03-23T15:10:06;18.00;93.20
666;DHT22;315;48.738;9.126;2023-03-23T15:12:32;17.90;93.10
666;DHT22;315;48.738;9.126;2023-03-23T15:15:00;18.00;93.60
666;DHT22;315;48.738;9.126;2023-03-23T15:17:32;17.90;93.10
666;DHT22;315;48.738;9.126;2023-03-23T15:20:17;17.90;93.60
666;DHT22;315;48.738;9.126;2023-03-23T15:22:48;17.90;93.10
666;DHT22;315;48.738;9.126;2023-03-23T15:28:49;18.00;92.40
666;DHT22;315;48.738;9.126;2023-03-23T15:33:13;17.80;92.60
666;DHT22;315;48.738;9.126;2023-03-23T15:35:45;17.80;92.60
666;DHT22;315;48.738;9.126;2023-03-23T15:40:43;17.70;93.00
666;DHT22;315;48.738;9.126;2023-03-23T15:43:26;17.60;92.80
666;DHT22;315;48.738;9.126;2023-03-23T15:46:01;17.50;92.90
666;DHT22;315;48.738;9.126;2023-03-23T15:51:11;17.40;93.60
666;DHT22;315;48.738;9.126;2023-03-23T15:53:38;17.40;93.60
666;DHT22;315;48.738;9.126;2023-03-23T15:56:06;17.40;94.20
666;DHT22;315;48.738;9.126;2023-03-23T15:58:33;17.30;93.90
666;DHT22;315;48.738;9.126;2023-03-23T16:01:02;17.20;94.10
666;DHT22;315;48.738;9.126;2023-03-23T16:03:38;17.20;94.30
666;DHT22;315;48.738;9.126;2023-03-23T16:06:05;17.10;94.40
666;DHT22;315;48.738;9.126;2023-03-23T16:08:30;17.10;94.80
666;DHT22;315;48.738;9.126;2023-03-23T16:10:56;17.00;94.80
666;DHT22;315;48.738;9.126;2023-03-23T16:13:21;17.00;95.20
666;DHT22;315;48.738;9.126;2023-03-23T16:15:48;17.00;95.30
666;DHT22;315;48.738;9.126;2023-03-23T16:18:17;16.90;95.30
666;DHT22;315;48.738;9.126;2023-03-23T16:20:43;16.80;95.80
666;DHT22;315;48.738;9.126;2023-03-23T16:23:09;16.80;95.90
666;DHT22;315;48.738;9.126;2023-03-23T16:25:34;16.80;95.90
666;DHT22;315;48.738;9.126;2023-03-23T16:28:00;16.70;96.20
666;DHT22;315;48.738;9.126;2023-03-23T16:30:27;16.70;95.90
666;DHT22;315;48.738;9.126;2023-03-23T16:32:53;16.70;96.20
666;DHT22;315;48.738;9.126;2023-03-23T16:35:20;16.60;96.40
666;DHT22;315;48.738;9.126;2023-03-23T16:37:54;16.60;96.80
666;DHT22;315;48.738;9.126;2023-03-23T16:40:20;16.60;96.60
666;DHT22;315;48.738;9.126;2023-03-23T16:42:46;16.60;97.30
666;DHT22;315;48.738;9.126;2023-03-23T16:45:13;16.50;97.60
666;DHT22;315;48.738;9.126;2023-03-23T16:47:39;16.50;98.10
666;DHT22;315;48.738;9.126;2023-03-23T16:50:07;16.40;98.60
666;DHT22;315;48.738;9.126;2023-03-23T16:52:35;16.40;98.80
666;DHT22;315;48.738;9.126;2023-03-23T16:55:01;16.40;98.80
666;DHT22;315;48.738;9.126;2023-03-23T16:57:26;16.40;98.80
666;DHT22;315;48.738;9.126;2023-03-23T16:59:52;16.40;99.20
666;DHT22;315;48.738;9.126;2023-03-23T17:02:17;16.40;99.10
666;DHT22;315;48.738;9.126;2023-03-23T17:04:44;16.40;99.40
666;DHT22;315;48.738;9.126;2023-03-23T17:07:11;16.30;99.30
666;DHT22;315;48.738;9.126;2023-03-23T17:09:36;16.30;99.60
666;DHT22;315;48.738;9.126;2023-03-23T17:12:02;16.30;99.80
666;DHT22;315;48.738;9.126;2023-03-23T17:14:27;16.20;99.90
666;DHT22;315;48.738;9.126;2023-03-23T17:16:53;16.20;99.90
666;DHT22;315;48.738;9.126;2023-03-23T17:19:18;16.20;99.90
666;DHT22;315;48.738;9.126;2023-03-23T17:21:44;16.20;99.90
666;DHT22;315;48.738;9.126;2023-03-23T17:24:09;16.20;99.90
666;DHT22;315;48.738;9.126;2023-03-23T17:26:35;16.20;99.90
666;DHT22;315;48.738;9.126;2023-03-23T17:29:02;16.20;99.90
666;DHT22;315;48.738;9.126;2023-03-23T17:31:27;16.10;99.90
666;DHT22;315;48.738;9.126;2023-03-23T17:33:53;16.10;99.90
666;DHT22;315;48.738;9.126;2023-03-23T17:36:18;16.10;99.90
666;DHT22;315;48.738;9.126;2023-03-23T17:38:44;16.10;99.90
666;DHT22;315;48.738;9.126;2023-03-23T17:41:10;16.00;99.90
666;DHT22;315;48.738;9.126;2023-03-23T17:43:36;16.00;99.90
666;DHT22;315;48.738;9.126;2023-03-23T17:46:04;15.90;99.90
666;DHT22;315;48.738;9.126;2023-03-23T17:48:30;15.90;99.90
666;DHT22;315;48.738;9.126;2023-03-23T17:50:56;15.90;99.90
666;DHT22;315;48.738;9.126;2023-03-23T17:53:26;15.90;99.90
666;DHT22;315;48.738;9.126;2023-03-23T17:55:52;15.80;99.90
666;DHT22;315;48.738;9.126;2023-03-23T17:58:17;15.70;99.90
666;DHT22;315;48.738;9.126;2023-03-23T18:00:43;15.70;99.90
666;DHT22;315;48.738;9.126;2023-03-23T18:03:09;15.70;99.90
666;DHT22;315;48.738;9.126;2023-03-23T18:05:34;15.60;99.90
666;DHT22;315;48.738;9.126;2023-03-23T18:08:02;15.60;99.90
666;DHT22;315;48.738;9.126;2023-03-23T18:10:28;15.60;99.90
666;DHT22;315;48.738;9.126;2023-03-23T18:12:54;15.60;99.90
666;DHT22;315;48.738;9.126;2023-03-23T18:15:19;15.50;99.90
666;DHT22;315;48.738;9.126;2023-03-23T18:17:45;15.50;99.90
666;DHT22;315;48.738;9.126;2023-03-23T18:20:12;15.50;99.90
666;DHT22;315;48.738;9.126;2023-03-23T18:22:38;15.50;99.90